sensor_id;sensor_type;location;lat;lon;timestamp;temperature;humidity
39493;DHT22;25176;51.060;3.720;2022-08-19T09:03:23;23.20;99.90
39493;DHT22;25176;51.060;3.720;2022-08-19T09:06:02;23.10;99.90
39493;DHT22;25176;51.060;3.720;2022-08-19T09:10:54;23.30;99.90
39493;DHT22;25176;51.060;3.720;2022-08-19T09:13:23;23.20;99.90
39493;DHT22;25176;51.060;3.720;2022-08-19T09:16:34;23.40;99.90
39493;DHT22;25176;51.060;3.720;2022-08-19T09:18:43;23.30;99.90
39493;DHT22;25176;51.060;3.720;2022-08-19T09:21:11;23.40;99.90
39493;DHT22;25176;51.060;3.720;2022-08-19T09:23:37;23.50;99.90
39493;DHT22;25176;51.060;3.720;2022-08-19T09:26:06;23.70;99.90
39493;DHT22;25176;51.060;3.720;2022-08-19T09:28:32;23.80;99.90
39493;DHT22;25176;51.060;3.720;2022-08-19T09:30:57;24.20;99.90
39493;DHT22;25176;51.060;3.720;2022-08-19T09:33:23;24.40;99.90
39493;DHT22;25176;51.060;3.720;2022-08-19T09:35:48;24.80;99.90
39493;DHT22;25176;51.060;3.720;2022-08-19T09:38:14;25.20;99.90
39493;DHT22;25176;51.060;3.720;2022-08-19T09:40:39;25.60;99.90
39493;DHT22;25176;51.060;3.720;2022-08-19T09:43:05;26.20;99.90
39493;DHT22;25176;51.060;3.720;2022-08-19T09:45:31;26.40;99.90
39493;DHT22;25176;51.060;3.720;2022-08-19T09:47:57;26.70;99.90
39493;DHT22;25176;51.060;3.720;2022-08-19T09:50:23;27.30;99.30
39493;DHT22;25176;51.060;3.720;2022-08-19T09:52:49;27.60;98.30
39493;DHT22;25176;51.060;3.720;2022-08-19T09:55:14;27.20;98.30
39493;DHT22;25176;51.060;3.720;2022-08-19T09:57:41;26.80;98.60
39493;DHT22;25176;51.060;3.720;2022-08-19T10:00:07;26.60;99.10
39493;DHT22;25176;51.060;3.720;2022-08-19T10:02:34;26.50;99.00
39493;DHT22;25176;51.060;3.720;2022-08-19T10:04:59;26.50;99.10
39493;DHT22;25176;51.060;3.720;2022-08-19T10:07:44;26.20;99.30
39493;DHT22;25176;51.060;3.720;2022-08-19T10:10:09;25.90;99.80
39493;DHT22;25176;51.060;3.720;2022-08-19T10:12:35;25.70;99.90
39493;DHT22;25176;51.060;3.720;2022-08-19T10:15:01;25.60;99.90
39493;DHT22;25176;51.060;3.720;2022-08-19T10:17:27;25.40;99.90
39493;DHT22;25176;51.060;3.720;2022-08-19T10:19:52;25.30;99.90
39493;DHT22;25176;51.060;3.720;2022-08-19T10:22:18;25.30;99.90
39493;DHT22;25176;51.060;3.720;2022-08-19T10:24:45;25.20;99.90
39493;DHT22;25176;51.060;3.720;2022-08-19T10:27:11;25.40;99.90
39493;DHT22;25176;51.060;3.720;2022-08-19T10:29:38;25.00;99.90
39493;DHT22;25176;51.060;3.720;2022-08-19T10:32:04;25.20;99.90
39493;DHT22;25176;51.060;3.720;2022-08-19T10:34:33;25.30;99.90
39493;DHT22;25176;51.060;3.720;2022-08-19T10:36:58;25.70;99.90
39493;DHT22;25176;51.060;3.720;2022-08-19T10:39:25;26.20;99.90
39493;DHT22;25176;51.060;3.720;2022-08-19T10:41:54;26.50;99.30
39493;DHT22;25176;51.060;3.720;2022-08-19T10:44:21;26.40;99.30
39493;DHT22;25176;51.060;3.720;2022-08-19T10:46:48;26.20;99.30
39493;DHT22;25176;51.060;3.720;2022-08-19T10:49:14;26.20;99.30
39493;DHT22;25176;51.060;3.720;2022-08-19T10:51:41;26.20;99.40
39493;DHT22;25176;51.060;3.720;2022-08-19T10:54:42;26.30;99.30
39493;DHT22;25176;51.060;3.720;2022-08-19T10:57:29;26.50;99.10
39493;DHT22;25176;51.060;3.720;2022-08-19T10:59:55;26.40;99.00
39493;DHT22;25176;51.060;3.720;2022-08-19T11:02:21;26.20;99.10
39493;DHT22;25176;51.060;3.720;2022-08-19T11:04:46;26.00;99.30
39493;DHT22;25176;51.060;3.720;2022-08-19T11:07:14;26.00;99.30
39493;DHT22;25176;51.060;3.720;2022-08-19T11:09:41;26.00;99.40
39493;DHT22;25176;51.060;3.720;2022-08-19T11:12:07;25.90;99.30
39493;DHT22;25176;51.060;3.720;2022-08-19T11:14:33;25.60;99.50
39493;DHT22;25176;51.060;3.720;2022-08-19T11:16:59;25.60;99.70
39493;DHT22;25176;51.060;3.720;2022-08-19T11:19:24;25.70;99.60
39493;DHT22;25176;51.060;3.720;2022-08-19T11:21:50;25.80;99.70
39493;DHT22;25176;51.060;3.720;2022-08-19T11:24:17;25.70;99.90
39493;DHT22;25176;51.060;3.720;2022-08-19T11:26:45;25.90;99.60
39493;DHT22;25176;51.060;3.720;2022-08-19T11:29:12;25.90;99.50
39493;DHT22;25176;51.060;3.720;2022-08-19T11:31:42;26.00;99.50
39493;DHT22;25176;51.060;3.720;2022-08-19T11:34:10;25.70;99.50
39493;DHT22;25176;51.060;3.720;2022-08-19T11:36:39;25.80;99.70
39493;DHT22;25176;51.060;3.720;2022-08-19T11:39:06;25.90;99.40
39493;DHT22;25176;51.060;3.720;2022-08-19T11:41:32;25.80;99.60
39493;DHT22;25176;51.060;3.720;2022-08-19T11:43:58;25.90;99.50
39493;DHT22;25176;51.060;3.720;2022-08-19T11:46:24;25.80;99.40
39493;DHT22;25176;51.060;3.720;2022-08-19T11:48:50;26.00;99.30
39493;DHT22;25176;51.060;3.720;2022-08-19T11:51:20;25.90;99.30
39493;DHT22;25176;51.060;3.720;2022-08-19T11:53:46;26.20;99.20
39493;DHT22;25176;51.060;3.720;2022-08-19T11:56:12;26.30;98.90
39493;DHT22;25176;51.060;3.720;2022-08-19T11:58:38;26.60;98.40
39493;DHT22;25176;51.060;3.720;2022-08-19T12:01:10;26.40;98.70
39493;DHT22;25176;51.060;3.720;2022-08-19T12:03:37;26.30;98.90
39493;DHT22;25176;51.060;3.720;2022-08-19T12:06:13;26.20;98.80
39493;DHT22;25176;51.060;3.720;2022-08-19T12:08:40;26.10;99.30
39493;DHT22;25176;51.060;3.720;2022-08-19T12:11:06;26.20;99.10
39493;DHT22;25176;51.060;3.720;2022-08-19T12:13:35;26.30;98.80
39493;DHT22;25176;51.060;3.720;2022-08-19T12:16:06;26.70;98.20
39493;DHT22;25176;51.060;3.720;2022-08-19T12:18:32;26.70;98.40
39493;DHT22;25176;51.060;3.720;2022-08-19T12:20:57;26.70;98.10
39493;DHT22;25176;51.060;3.720;2022-08-19T12:23:25;27.20;97.80
39493;DHT22;25176;51.060;3.720;2022-08-19T12:25:51;27.40;97.40
39493;DHT22;25176;51.060;3.720;2022-08-19T12:28:19;27.50;96.90
39493;DHT22;25176;51.060;3.720;2022-08-19T12:30:46;27.30;96.90
39493;DHT22;25176;51.060;3.720;2022-08-19T12:33:12;27.50;96.70
39493;DHT22;25176;51.060;3.720;2022-08-19T12:35:39;27.30;96.70
39493;DHT22;25176;51.060;3.720;2022-08-19T12:38:09;27.00;97.30
39493;DHT22;25176;51.060;3.720;2022-08-19T12:40:34;26.90;97.10
39493;DHT22;25176;51.060;3.720;2022-08-19T12:43:05;26.70;97.40
39493;DHT22;25176;51.060;3.720;2022-08-19T12:45:31;26.70;97.40
39493;DHT22;25176;51.060;3.720;2022-08-19T12:47:56;26.50;97.80
39493;DHT22;25176;51.060;3.720;2022-08-19T12:50:22;26.50;97.90
39493;DHT22;25176;51.060;3.720;2022-08-19T12:52:48;26.30;98.40
39493;DHT22;25176;51.060;3.720;2022-08-19T12:55:13;25.90;98.70
39493;DHT22;25176;51.060;3.720;2022-08-19T12:57:39;26.10;99.00
39493;DHT22;25176;51.060;3.720;2022-08-19T13:00:06;26.20;98.80
39493;DHT22;25176;51.060;3.720;2022-08-19T13:02:37;26.20;98.70
39493;DHT22;25176;51.060;3.720;2022-08-19T13:05:03;26.70;98.10
39493;DHT22;25176;51.060;3.720;2022-08-19T13:07:29;26.80;98.20
39493;DHT22;25176;51.060;3.720;2022-08-19T13:09:55;27.10;97.60
39493;DHT22;25176;51.060;3.720;2022-08-19T13:12:20;27.70;96.90
39493;DHT22;25176;51.060;3.720;2022-08-19T13:14:46;27.50;96.70
39493;DHT22;25176;51.060;3.720;2022-08-19T13:17:15;27.10;97.20
39493;DHT22;25176;51.060;3.720;2022-08-19T13:19:41;26.90;97.50
39493;DHT22;25176;51.060;3.720;2022-08-19T13:22:06;26.70;98.00
39493;DHT22;25176;51.060;3.720;2022-08-19T13:24:32;26.00;99.90
39493;DHT22;25176;51.060;3.720;2022-08-19T13:26:58;25.40;99.90
39493;DHT22;25176;51.060;3.720;2022-08-19T13:29:24;25.20;99.90
39493;DHT22;25176;51.060;3.720;2022-08-19T13:32:08;25.10;99.90
39493;DHT22;25176;51.060;3.720;2022-08-19T13:34:52;24.70;99.90
39493;DHT22;25176;51.060;3.720;2022-08-19T13:37:18;24.40;99.90
39493;DHT22;25176;51.060;3.720;2022-08-19T13:40:03;24.60;99.90
39493;DHT22;25176;51.060;3.720;2022-08-19T13:42:29;24.70;99.90
39493;DHT22;25176;51.060;3.720;2022-08-19T13:44:55;24.80;99.90
39493;DHT22;25176;51.060;3.720;2022-08-19T13:47:20;24.90;99.90
39493;DHT22;25176;51.060;3.720;2022-08-19T13:49:46;25.00;99.90
39493;DHT22;25176;51.060;3.720;2022-08-19T13:52:11;25.40;99.90
39493;DHT22;25176;51.060;3.720;2022-08-19T13:54:37;25.60;99.90
39493;DHT22;25176;51.060;3.720;2022-08-19T13:57:02;25.50;99.90
39493;DHT22;25176;51.060;3.720;2022-08-19T13:59:28;25.60;99.90
39493;DHT22;25176;51.060;3.720;2022-08-19T14:01:57;25.60;99.90
39493;DHT22;25176;51.060;3.720;2022-08-19T14:04:22;25.70;99.90
39493;DHT22;25176;51.060;3.720;2022-08-19T14:06:48;26.00;99.90
39493;DHT22;25176;51.060;3.720;2022-08-19T14:09:13;26.10;99.90
39493;DHT22;25176;51.060;3.720;2022-08-19T14:11:39;26.10;99.90
39493;DHT22;25176;51.060;3.720;2022-08-19T14:14:04;26.30;99.90
39493;DHT22;25176;51.060;3.720;2022-08-19T14:16:30;26.20;99.90
39493;DHT22;25176;51.060;3.720;2022-08-19T14:18:55;26.00;99.90
39493;DHT22;25176;51.060;3.720;2022-08-19T14:21:21;25.50;99.90
39493;DHT22;25176;51.060;3.720;2022-08-19T14:23:48;25.40;99.90
39493;DHT22;25176;51.060;3.720;2022-08-19T14:26:14;25.40;99.90
39493;DHT22;25176;51.060;3.720;2022-08-19T14:28:40;25.60;99.90
39493;DHT22;25176;51.060;3.720;2022-08-19T14:31:07;25.60;99.90
39493;DHT22;25176;51.060;3.720;2022-08-19T14:33:33;25.80;99.90
39493;DHT22;25176;51.060;3.720;2022-08-19T14:35:59;25.80;99.90
39493;DHT22;25176;51.060;3.720;2022-08-19T14:38:25;25.70;99.90
39493;DHT22;25176;51.060;3.720;2022-08-19T14:40:51;25.50;99.90
39493;DHT22;25176;51.060;3.720;2022-08-19T14:43:17;25.80;99.90
39493;DHT22;25176;51.060;3.720;2022-08-19T14:45:43;26.10;99.90
39493;DHT22;25176;51.060;3.720;2022-08-19T14:48:08;26.30;99.90
39493;DHT22;25176;51.060;3.720;2022-08-19T14:50:35;26.50;99.90
39493;DHT22;25176;51.060;3.720;2022-08-19T14:53:03;26.50;99.90
39493;DHT22;25176;51.060;3.720;2022-08-19T14:55:29;26.70;99.90
39493;DHT22;25176;51.060;3.720;2022-08-19T14:57:54;26.70;99.90
39493;DHT22;25176;51.060;3.720;2022-08-19T15:00:20;26.50;99.90
39493;DHT22;25176;51.060;3.720;2022-08-19T15:02:46;26.30;99.90
39493;DHT22;25176;51.060;3.720;2022-08-19T15:05:12;26.20;99.90
39493;DHT22;25176;51.060;3.720;2022-08-19T15:07:38;26.10;99.90
39493;DHT22;25176;51.060;3.720;2022-08-19T15:10:05;26.00;99.90
39493;DHT22;25176;51.060;3.720;2022-08-19T15:12:32;26.00;99.90
39493;DHT22;25176;51.060;3.720;2022-08-19T15:14:59;26.00;99.90
39493;DHT22;25176;51.060;3.720;2022-08-19T15:17:25;26.10;99.90
39493;DHT22;25176;51.060;3.720;2022-08-19T15:19:51;26.00;99.90
39493;DHT22;25176;51.060;3.720;2022-08-19T15:22:16;26.00;99.90
39493;DHT22;25176;51.060;3.720;2022-08-19T15:24:42;26.00;99.90
39493;DHT22;25176;51.060;3.720;2022-08-19T15:27:11;26.20;99.90
39493;DHT22;25176;51.060;3.720;2022-08-19T15:29:36;26.10;99.90
39493;DHT22;25176;51.060;3.720;2022-08-19T15:32:02;26.30;99.90
39493;DHT22;25176;51.060;3.720;2022-08-19T15:34:28;26.30;99.90
39493;DHT22;25176;51.060;3.720;2022-08-19T15:36:56;26.30;99.90
39493;DHT22;25176;51.060;3.720;2022-08-19T15:39:23;26.30;99.90
39493;DHT22;25176;51.060;3.720;2022-08-19T15:41:49;26.30;99.90
39493;DHT22;25176;51.060;3.720;2022-08-19T15:44:16;26.50;99.90
39493;DHT22;25176;51.060;3.720;2022-08-19T15:46:43;26.40;99.90
39493;DHT22;25176;51.060;3.720;2022-08-19T15:49:10;26.50;99.90
39493;DHT22;25176;51.060;3.720;2022-08-19T15:51:36;26.30;99.90
39493;DHT22;25176;51.060;3.720;2022-08-19T15:54:04;26.00;99.90
39493;DHT22;25176;51.060;3.720;2022-08-19T15:56:30;25.80;99.90
39493;DHT22;25176;51.060;3.720;2022-08-19T15:59:14;25.50;99.90
39493;DHT22;25176;51.060;3.720;2022-08-19T16:01:59;25.60;99.90
39493;DHT22;25176;51.060;3.720;2022-08-19T16:04:43;25.50;99.90
39493;DHT22;25176;51.060;3.720;2022-08-19T16:07:27;25.40;99.90
39493;DHT22;25176;51.060;3.720;2022-08-19T16:09:53;25.60;99.90
39493;DHT22;25176;51.060;3.720;2022-08-19T16:12:18;25.60;99.90
39493;DHT22;25176;51.060;3.720;2022-08-19T16:14:44;25.90;99.90
39493;DHT22;25176;51.060;3.720;2022-08-19T16:17:09;26.10;99.90
39493;DHT22;25176;51.060;3.720;2022-08-19T16:19:37;26.30;99.90
39493;DHT22;25176;51.060;3.720;2022-08-19T16:22:03;26.30;99.90
39493;DHT22;25176;51.060;3.720;2022-08-19T16:24:29;26.60;99.90
39493;DHT22;25176;51.060;3.720;2022-08-19T16:26:55;26.60;99.90
39493;DHT22;25176;51.060;3.720;2022-08-19T16:29:21;26.60;99.90
39493;DHT22;25176;51.060;3.720;2022-08-19T16:31:47;26.50;99.90
39493;DHT22;25176;51.060;3.720;2022-08-19T16:34:14;26.40;99.90
39493;DHT22;25176;51.060;3.720;2022-08-19T16:36:39;26.50;99.90
39493;DHT22;25176;51.060;3.720;2022-08-19T16:39:10;26.20;99.90
39493;DHT22;25176;51.060;3.720;2022-08-19T16:41:36;26.10;99.90
39493;DHT22;25176;51.060;3.720;2022-08-19T16:44:02;26.10;99.90
39493;DHT22;25176;51.060;3.720;2022-08-19T16:46:28;26.10;99.90
39493;DHT22;25176;51.060;3.720;2022-08-19T16:48:53;25.90;99.90
39493;DHT22;25176;51.060;3.720;2022-08-19T16:51:19;25.70;99.90
39493;DHT22;25176;51.060;3.720;2022-08-19T16:53:47;25.50;99.90
39493;DHT22;25176;51.060;3.720;2022-08-19T16:56:13;25.40;99.90
39493;DHT22;25176;51.060;3.720;2022-08-19T16:58:39;25.30;99.90
39493;DHT22;25176;51.060;3.720;2022-08-19T17:01:06;25.10;99.90
39493;DHT22;25176;51.060;3.720;2022-08-19T17:03:32;25.10;99.90
39493;DHT22;25176;51.060;3.720;2022-08-19T17:05:58;24.90;99.90
39493;DHT22;25176;51.060;3.720;2022-08-19T17:08:28;24.90;99.90
39493;DHT22;25176;51.060;3.720;2022-08-19T17:10:56;24.90;99.90
39493;DHT22;25176;51.060;3.720;2022-08-19T17:13:22;25.10;99.90
39493;DHT22;25176;51.060;3.720;2022-08-19T17:15:47;25.10;99.90
39493;DHT22;25176;51.060;3.720;2022-08-19T17:18:14;25.20;99.90
39493;DHT22;25176;51.060;3.720;2022-08-19T17:20:40;25.30;99.90
39493;DHT22;25176;51.060;3.720;2022-08-19T17:23:05;25.20;99.90
39493;DHT22;25176;51.060;3.720;2022-08-19T17:25:31;25.20;99.90
39493;DHT22;25176;51.060;3.720;2022-08-19T17:28:01;25.10;99.90
39493;DHT22;25176;51.060;3.720;2022-08-19T17:30:30;25.20;99.90
39493;DHT22;25176;51.060;3.720;2022-08-19T17:32:56;25.30;99.90
39493;DHT22;25176;51.060;3.720;2022-08-19T17:35:21;25.30;99.90
39493;DHT22;25176;51.060;3.720;2022-08-19T17:37:47;25.20;99.90
39493;DHT22;25176;51.060;3.720;2022-08-19T17:40:13;25.30;99.90
39493;DHT22;25176;51.060;3.720;2022-08-19T17:42:39;25.20;99.90
39493;DHT22;25176;51.060;3.720;2022-08-19T17:45:06;25.20;99.90
39493;DHT22;25176;51.060;3.720;2022-08-19T17:47:32;25.00;99.90
39493;DHT22;25176;51.060;3.720;2022-08-19T17:49:57;25.10;99.90
39493;DHT22;25176;51.060;3.720;2022-08-19T17:52:23;25.10;99.90
39493;DHT22;25176;51.060;3.720;2022-08-19T17:54:49;25.10;99.90
39493;DHT22;25176;51.060;3.720;2022-08-19T17:57:15;25.20;99.90
39493;DHT22;25176;51.060;3.720;2022-08-19T17:59:40;25.20;99.90
39493;DHT22;25176;51.060;3.720;2022-08-19T18:02:06;25.20;99.90
39493;DHT22;25176;51.060;3.720;2022-08-19T18:04:33;25.20;99.90
39493;DHT22;25176;51.060;3.720;2022-08-19T18:06:58;25.10;99.90
39493;DHT22;25176;51.060;3.720;2022-08-19T18:09:29;25.00;99.90
39493;DHT22;25176;51.060;3.720;2022-08-19T18:11:55;25.00;99.90
39493;DHT22;25176;51.060;3.720;2022-08-19T18:14:22;25.00;99.90
39493;DHT22;25176;51.060;3.720;2022-08-19T18:16:51;24.90;99.90
39493;DHT22;25176;51.060;3.720;2022-08-19T18:19:18;24.90;99.90
39493;DHT22;25176;51.060;3.720;2022-08-19T18:21:43;24.80;99.90
39493;DHT22;25176;51.060;3.720;2022-08-19T18:24:11;24.80;99.90
39493;DHT22;25176;51.060;3.720;2022-08-19T18:26:36;24.70;99.90
39493;DHT22;25176;51.060;3.720;2022-08-19T18:29:03;24.60;99.90
39493;DHT22;25176;51.060;3.720;2022-08-19T18:31:29;24.60;99.90
39493;DHT22;25176;51.060;3.720;2022-08-19T18:33:54;24.60;99.90
39493;DHT22;25176;51.060;3.720;2022-08-19T18:36:20;24.60;99.90
39493;DHT22;25176;51.060;3.720;2022-08-19T18:38:46;24.40;99.90
39493;DHT22;25176;51.060;3.720;2022-08-19T18:41:30;24.40;99.90
39493;DHT22;25176;51.060;3.720;2022-08-19T18:44:14;24.40;99.90
39493;DHT22;25176;51.060;3.720;2022-08-19T18:46:58;24.30;99.90
39493;DHT22;25176;51.060;3.720;2022-08-19T18:49:42;24.20;99.90
39493;DHT22;25176;51.060;3.720;2022-08-19T18:52:08;24.30;99.90
39493;DHT22;25176;51.060;3.720;2022-08-19T18:54:33;24.30;99.90
39493;DHT22;25176;51.060;3.720;2022-08-19T18:56:59;24.30;99.90
39493;DHT22;25176;51.060;3.720;2022-08-19T18:59:26;24.20;99.90
39493;DHT22;25176;51.060;3.720;2022-08-19T19:01:52;24.20;99.90
39493;DHT22;25176;51.060;3.720;2022-08-19T19:04:22;24.20;99.90
39493;DHT22;25176;51.060;3.720;2022-08-19T19:06:48;24.10;99.90
39493;DHT22;25176;51.060;3.720;2022-08-19T19:09:18;24.00;99.90
39493;DHT22;25176;51.060;3.720;2022-08-19T19:11:49;24.00;99.90
39493;DHT22;25176;51.060;3.720;2022-08-19T19:14:17;23.80;99.90
39493;DHT22;25176;51.060;3.720;2022-08-19T19:16:44;23.70;99.90
39493;DHT22;25176;51.060;3.720;2022-08-19T19:19:10;23.70;99.90
39493;DHT22;25176;51.060;3.720;2022-08-19T19:21:39;23.70;99.90
39493;DHT22;25176;51.060;3.720;2022-08-19T19:24:09;23.70;99.90
39493;DHT22;25176;51.060;3.720;2022-08-19T19:26:37;23.60;99.90
39493;DHT22;25176;51.060;3.720;2022-08-19T19:29:02;23.60;99.90
39493;DHT22;25176;51.060;3.720;2022-08-19T19:31:29;23.70;99.90
39493;DHT22;25176;51.060;3.720;2022-08-19T19:33:57;23.70;99.90
39493;DHT22;25176;51.060;3.720;2022-08-19T19:36:23;23.70;99.90
39493;DHT22;25176;51.060;3.720;2022-08-19T19:38:48;23.70;99.90
39493;DHT22;25176;51.060;3.720;2022-08-19T19:41:15;23.60;99.90
39493;DHT22;25176;51.060;3.720;2022-08-19T19:43:41;23.70;99.90
39493;DHT22;25176;51.060;3.720;2022-08-19T19:46:07;23.60;99.90
39493;DHT22;25176;51.060;3.720;2022-08-19T19:48:32;23.60;99.90
39493;DHT22;25176;51.060;3.720;2022-08-19T19:50:59;23.60;99.90
39493;DHT22;25176;51.060;3.720;2022-08-19T19:53:25;23.50;99.90
39493;DHT22;25176;51.060;3.720;2022-08-19T19:55:52;23.40;99.90
39493;DHT22;25176;51.060;3.720;2022-08-19T19:58:20;23.40;99.90
39493;DHT22;25176;51.060;3.720;2022-08-19T20:00:45;23.30;99.90
39493;DHT22;25176;51.060;3.720;2022-08-19T20:03:11;23.30;99.90
39493;DHT22;25176;51.060;3.720;2022-08-19T20:05:36;23.20;99.90
39493;DHT22;25176;51.060;3.720;2022-08-19T20:08:02;23.20;99.90
39493;DHT22;25176;51.060;3.720;2022-08-19T20:10:46;23.20;99.90
39493;DHT22;25176;51.060;3.720;2022-08-19T20:13:11;23.20;99.90
39493;DHT22;25176;51.060;3.720;2022-08-19T20:15:39;23.10;99.90
39493;DHT22;25176;51.060;3.720;2022-08-19T20:18:08;23.10;99.90
39493;DHT22;25176;51.060;3.720;2022-08-19T20:20:33;23.10;99.90
39493;DHT22;25176;51.060;3.720;2022-08-19T20:22:59;22.90;99.90
39493;DHT22;25176;51.060;3.720;2022-08-19T20:25:25;22.90;99.90
39493;DHT22;25176;51.060;3.720;2022-08-19T20:27:51;22.90;99.90
39493;DHT22;25176;51.060;3.720;2022-08-19T20:30:17;22.80;99.90
39493;DHT22;25176;51.060;3.720;2022-08-19T20:32:43;22.80;99.90
39493;DHT22;25176;51.060;3.720;2022-08-19T20:35:11;22.70;99.90
39493;DHT22;25176;51.060;3.720;2022-08-19T20:37:37;22.70;99.90
39493;DHT22;25176;51.060;3.720;2022-08-19T20:40:03;22.80;99.90
39493;DHT22;25176;51.060;3.720;2022-08-19T20:42:29;22.90;99.90
39493;DHT22;25176;51.060;3.720;2022-08-19T20:44:54;22.90;99.90
39493;DHT22;25176;51.060;3.720;2022-08-19T20:47:20;22.90;99.90
39493;DHT22;25176;51.060;3.720;2022-08-19T20:49:46;22.90;99.90
39493;DHT22;25176;51.060;3.720;2022-08-19T20:52:11;23.00;99.90
39493;DHT22;25176;51.060;3.720;2022-08-19T20:54:37;23.00;99.90
39493;DHT22;25176;51.060;3.720;2022-08-19T20:57:03;23.10;99.90
39493;DHT22;25176;51.060;3.720;2022-08-19T20:59:29;23.00;99.90
39493;DHT22;25176;51.060;3.720;2022-08-19T21:01:55;23.00;99.90
39493;DHT22;25176;51.060;3.720;2022-08-19T21:04:21;23.10;99.90
39493;DHT22;25176;51.060;3.720;2022-08-19T21:06:47;23.00;99.90
39493;DHT22;25176;51.060;3.720;2022-08-19T21:09:13;23.10;99.90
39493;DHT22;25176;51.060;3.720;2022-08-19T21:11:39;23.00;99.90
39493;DHT22;25176;51.060;3.720;2022-08-19T21:14:04;23.00;99.90
39493;DHT22;25176;51.060;3.720;2022-08-19T21:16:30;23.00;99.90
39493;DHT22;25176;51.060;3.720;2022-08-19T21:18:58;23.00;99.90
39493;DHT22;25176;51.060;3.720;2022-08-19T21:21:23;22.90;99.90
39493;DHT22;25176;51.060;3.720;2022-08-19T21:23:49;22.90;99.90
39493;DHT22;25176;51.060;3.720;2022-08-19T21:26:14;22.80;99.90
39493;DHT22;25176;51.060;3.720;2022-08-19T21:28:40;22.80;99.90
39493;DHT22;25176;51.060;3.720;2022-08-19T21:31:05;22.70;99.90
39493;DHT22;25176;51.060;3.720;2022-08-19T21:33:31;22.60;99.90
39493;DHT22;25176;51.060;3.720;2022-08-19T21:35:57;22.60;99.90
39493;DHT22;25176;51.060;3.720;2022-08-19T21:38:23;22.60;99.90
39493;DHT22;25176;51.060;3.720;2022-08-19T21:40:49;22.50;99.90
39493;DHT22;25176;51.060;3.720;2022-08-19T21:43:14;22.50;99.90
39493;DHT22;25176;51.060;3.720;2022-08-19T21:45:40;22.60;99.90
39493;DHT22;25176;51.060;3.720;2022-08-19T21:48:05;22.60;99.90
39493;DHT22;25176;51.060;3.720;2022-08-19T21:50:31;22.50;99.90
39493;DHT22;25176;51.060;3.720;2022-08-19T21:52:57;22.50;99.90
39493;DHT22;25176;51.060;3.720;2022-08-19T21:55:22;22.50;99.90
39493;DHT22;25176;51.060;3.720;2022-08-19T21:57:48;22.40;99.90
39493;DHT22;25176;51.060;3.720;2022-08-19T22:00:16;22.50;99.90
39493;DHT22;25176;51.060;3.720;2022-08-19T22:02:42;22.40;99.90
39493;DHT22;25176;51.060;3.720;2022-08-19T22:05:07;22.30;99.90
39493;DHT22;25176;51.060;3.720;2022-08-19T22:07:33;22.40;99.90
39493;DHT22;25176;51.060;3.720;2022-08-19T22:09:58;22.40;99.90
39493;DHT22;25176;51.060;3.720;2022-08-19T22:12:25;22.30;99.90
39493;DHT22;25176;51.060;3.720;2022-08-19T22:14:51;22.30;99.90
39493;DHT22;25176;51.060;3.720;2022-08-19T22:17:17;22.30;99.90
39493;DHT22;25176;51.060;3.720;2022-08-19T22:19:43;22.20;99.90
39493;DHT22;25176;51.060;3.720;2022-08-19T22:22:09;22.20;99.90
39493;DHT22;25176;51.060;3.720;2022-08-19T22:24:34;22.20;99.90
39493;DHT22;25176;51.060;3.720;2022-08-19T22:27:00;22.20;99.90
39493;DHT22;25176;51.060;3.720;2022-08-19T22:29:26;22.10;99.90
39493;DHT22;25176;51.060;3.720;2022-08-19T22:31:52;22.00;99.90
39493;DHT22;25176;51.060;3.720;2022-08-19T22:34:17;21.90;99.90
39493;DHT22;25176;51.060;3.720;2022-08-19T22:36:43;21.90;99.90
39493;DHT22;25176;51.060;3.720;2022-08-19T22:39:08;21.70;99.90
39493;DHT22;25176;51.060;3.720;2022-08-19T22:41:34;21.70;99.90
39493;DHT22;25176;51.060;3.720;2022-08-19T22:44:00;21.70;99.90
39493;DHT22;25176;51.060;3.720;2022-08-19T22:46:25;21.60;99.90
39493;DHT22;25176;51.060;3.720;2022-08-19T22:48:51;21.50;99.90
39493;DHT22;25176;51.060;3.720;2022-08-19T22:51:16;21.50;99.90
39493;DHT22;25176;51.060;3.720;2022-08-19T22:54:00;21.40;99.90
39493;DHT22;25176;51.060;3.720;2022-08-19T22:56:26;21.40;99.90
39493;DHT22;25176;51.060;3.720;2022-08-19T22:58:52;21.30;99.90
39493;DHT22;25176;51.060;3.720;2022-08-19T23:01:18;21.30;99.90
39493;DHT22;25176;51.060;3.720;2022-08-19T23:03:44;21.30;99.90
39493;DHT22;25176;51.060;3.720;2022-08-19T23:06:10;21.10;99.90
39493;DHT22;25176;51.060;3.720;2022-08-19T23:08:36;21.10;99.90
39493;DHT22;25176;51.060;3.720;2022-08-19T23:11:04;21.00;99.90
39493;DHT22;25176;51.060;3.720;2022-08-19T23:13:29;20.90;99.90
39493;DHT22;25176;51.060;3.720;2022-08-19T23:15:56;21.00;99.90
39493;DHT22;25176;51.060;3.720;2022-08-19T23:18:21;21.00;99.90
39493;DHT22;25176;51.060;3.720;2022-08-19T23:20:47;20.90;99.90
39493;DHT22;25176;51.060;3.720;2022-08-19T23:23:13;20.90;99.90
39493;DHT22;25176;51.060;3.720;2022-08-19T23:25:43;20.90;99.90
39493;DHT22;25176;51.060;3.720;2022-08-19T23:28:09;20.90;99.90
39493;DHT22;25176;51.060;3.720;2022-08-19T23:30:53;21.00;99.90
39493;DHT22;25176;51.060;3.720;2022-08-19T23:33:20;21.00;99.90
39493;DHT22;25176;51.060;3.720;2022-08-19T23:35:49;21.00;99.90
39493;DHT22;25176;51.060;3.720;2022-08-19T23:38:14;21.10;99.90
39493;DHT22;25176;51.060;3.720;2022-08-19T23:40:40;21.10;99.90
39493;DHT22;25176;51.060;3.720;2022-08-19T23:43:06;21.20;99.90
39493;DHT22;25176;51.060;3.720;2022-08-19T23:45:31;21.10;99.90
39493;DHT22;25176;51.060;3.720;2022-08-19T23:47:57;21.10;99.90
39493;DHT22;25176;51.060;3.720;2022-08-19T23:50:23;21.10;99.90
39493;DHT22;25176;51.060;3.720;2022-08-19T23:52:51;21.10;99.90
39493;DHT22;25176;51.060;3.720;2022-08-19T23:55:18;21.10;99.90
39493;DHT22;25176;51.060;3.720;2022-08-19T23:57:44;21.10;99.90
